Midland, Maryland
Current Conditions -  °F | °C
As of 10:10 PM on Wednesday 26 Nov 2014 (Local Time) from KCBE Reporting Station
Overcast Overcast  
Wind Chill: 34°   Ceiling: 100
Heat Index: 34°   Visibility: 0.5mi
Dew Point: 34°   Wind: 0mph
Humidity: 100%   Direction: NA
Pressure: 30.03"   Gusts: NA
Location:  39.59°N, 78.95°W
Report Text: KCBE 270310Z AUTO 00000KT 1/2SM OVC001 01/01 A3003 RMK AO1
Loading
Personal Weather Stations






























Interactive Weather Map New forecast layout! Learn more

10-Day Weather Forecast

Advertisements
Track Severe Weather on mobile